Time;durP1;ratioP1;P1;durP2;ratioP2;P2;SDS_P1;SDS_P2;PMS_P1;PMS_P2;Temp;Humidity;BMP_temperature;BMP_pressure;BME280_temperature;BME280_humidity;BME280_pressure;Samples;Min_cycle;Max_cycle;Signal;HPM_P1;HPM_P2
2023/01/03 00:00:52;;;;;;;207.45;52.80;;;;;;;9.32;100.00;102009.78;5015079;28;20042;-76
2023/01/03 00:03:18;;;;;;;249.60;53.58;;;;;;;9.33;100.00;102011.47;5011055;28;20129;-76
2023/01/03 00:05:48;;;;;;;244.27;48.72;;;;;;;9.35;100.00;102007.00;5012788;28;20022;-76
2023/01/03 00:08:14;;;;;;;226.63;49.88;;;;;;;9.37;100.00;102018.13;5014352;28;20037;-76
2023/01/03 00:10:41;;;;;;;213.60;51.88;;;;;;;9.35;100.00;102001.78;5016614;28;20034;-76
2023/01/03 00:13:06;;;;;;;178.13;50.47;;;;;;;9.33;100.00;102001.06;5013769;28;20107;-76
2023/01/03 00:15:37;;;;;;;247.38;48.70;;;;;;;9.34;100.00;102013.13;5011033;28;20509;-76
2023/01/03 00:18:03;;;;;;;239.65;51.22;;;;;;;9.35;100.00;102011.38;5017437;28;20120;-76
2023/01/03 00:20:32;;;;;;;174.50;48.88;;;;;;;9.36;100.00;102011.25;5012328;28;20029;-76
2023/01/03 00:22:58;;;;;;;168.75;51.28;;;;;;;9.27;100.00;102004.03;5019251;28;20473;-76
2023/01/03 00:25:25;;;;;;;178.80;49.92;;;;;;;9.24;100.00;102006.84;5015795;28;20362;-76
2023/01/03 00:27:51;;;;;;;159.35;49.38;;;;;;;9.22;100.00;102008.72;5015931;28;20104;-76
2023/01/03 00:30:18;;;;;;;175.82;53.60;;;;;;;9.21;100.00;102014.84;5013739;28;20056;-76
2023/01/03 00:32:44;;;;;;;185.88;52.55;;;;;;;9.25;100.00;102014.56;5013858;28;20381;-76
2023/01/03 00:35:10;;;;;;;154.15;53.40;;;;;;;9.25;100.00;102008.50;5009802;28;20021;-76
2023/01/03 00:37:36;;;;;;;190.25;56.28;;;;;;;9.24;100.00;102009.44;5012953;28;20117;-76
2023/01/03 00:40:03;;;;;;;226.27;57.80;;;;;;;9.26;100.00;102011.00;5008750;28;20038;-76
2023/01/03 00:43:27;;;;;;;157.15;52.15;;;;;;;9.24;100.00;102007.69;5015181;28;20037;-76
2023/01/03 00:45:17;;;;;;;146.32;49.72;;;;;;;9.22;100.00;102003.50;5010292;28;20095;-76
2023/01/03 00:47:43;;;;;;;167.15;50.83;;;;;;;9.21;100.00;101996.63;5010014;28;20044;-76
2023/01/03 00:50:08;;;;;;;153.85;48.75;;;;;;;9.21;100.00;101996.63;5009615;28;20037;-76
2023/01/03 00:52:34;;;;;;;138.60;47.25;;;;;;;9.19;100.00;101993.31;5012361;28;20034;-75
2023/01/03 00:55:00;;;;;;;135.95;46.50;;;;;;;9.19;100.00;102003.69;5011252;28;20030;-76
2023/01/03 00:57:25;;;;;;;159.50;48.00;;;;;;;9.18;100.00;102002.03;5014293;28;20389;-76
2023/01/03 00:59:51;;;;;;;144.70;47.78;;;;;;;9.20;100.00;102007.97;5014866;28;20037;-76
2023/01/03 01:02:19;;;;;;;116.82;41.90;;;;;;;9.20;100.00;102016.59;5009249;28;20026;-76
2023/01/03 01:04:44;;;;;;;123.80;41.78;;;;;;;9.22;100.00;102019.09;5002687;28;20465;-76
2023/01/03 01:07:10;;;;;;;131.90;42.17;;;;;;;9.24;100.00;102019.84;5015601;28;20581;-76
2023/01/03 01:09:36;;;;;;;139.30;41.35;;;;;;;9.27;100.00;102011.84;5009015;28;20037;-76
2023/01/03 01:12:04;;;;;;;195.30;43.97;;;;;;;9.32;100.00;102009.78;5017226;28;20063;-76
2023/01/03 01:14:32;;;;;;;202.32;42.28;;;;;;;9.34;100.00;102018.34;5010248;28;20037;-76
2023/01/03 01:17:01;;;;;;;250.23;44.05;;;;;;;9.36;100.00;102020.84;5042528;28;20029;-76
2023/01/03 01:19:31;;;;;;;189.32;39.15;;;;;;;9.37;100.00;102015.53;5015225;28;20473;-76
2023/01/03 01:21:57;;;;;;;111.32;39.45;;;;;;;9.38;100.00;102013.75;5013366;28;20030;-76
2023/01/03 01:24:24;;;;;;;214.30;44.72;;;;;;;9.40;100.00;102023.13;5008378;28;20038;-76
2023/01/03 01:26:50;;;;;;;158.20;42.85;;;;;;;9.40;100.00;102017.09;5015840;28;20481;-76
2023/01/03 01:29:16;;;;;;;184.98;42.92;;;;;;;9.41;100.00;102024.81;5017257;28;20048;-76
2023/01/03 01:31:43;;;;;;;151.15;42.00;;;;;;;9.41;100.00;102029.19;5009736;28;20014;-75
2023/01/03 01:34:09;;;;;;;129.23;36.92;;;;;;;9.39;100.00;102018.03;5014684;28;20029;-76
2023/01/03 01:36:38;;;;;;;138.27;41.10;;;;;;;9.41;100.00;102023.97;5012638;28;20920;-75
2023/01/03 01:39:08;;;;;;;142.32;37.17;;;;;;;9.43;100.00;102024.72;5012980;28;20045;-75
2023/01/03 01:44:39;;;;;;;112.90;39.22;;;;;;;9.42;100.00;102015.25;5006781;28;20048;-76
2023/01/03 01:47:27;;;;;;;185.02;42.88;;;;;;;9.39;100.00;102020.63;5010931;28;20029;-75
2023/01/03 01:50:33;;;;;;;154.80;41.40;;;;;;;9.36;100.00;102016.47;5005092;28;20042;-75
2023/01/03 01:53:01;;;;;;;155.88;41.63;;;;;;;9.37;100.00;102007.72;5005034;28;20084;-75
2023/01/03 01:55:39;;;;;;;166.10;42.33;;;;;;;9.38;100.00;102009.41;5011797;28;20562;-75
2023/01/03 01:58:07;;;;;;;173.40;45.08;;;;;;;9.36;100.00;102003.47;5014550;28;20089;-75
2023/01/03 02:00:33;;;;;;;175.95;44.08;;;;;;;9.37;100.00;102001.69;5009049;28;20497;-75
2023/01/03 02:02:59;;;;;;;191.60;42.85;;;;;;;9.38;100.00;101996.41;5010549;28;20040;-75
2023/01/03 02:05:26;;;;;;;153.38;41.45;;;;;;;9.38;100.00;101999.00;5011789;28;20025;-75
2023/01/03 02:07:53;;;;;;;172.32;42.13;;;;;;;9.35;100.00;102001.78;5006611;28;20092;-75
2023/01/03 02:10:31;;;;;;;149.55;40.28;;;;;;;9.34;100.00;101997.53;5009031;28;20068;-75
2023/01/03 02:13:17;;;;;;;208.45;43.67;;;;;;;9.28;100.00;102000.50;5017270;28;20548;-75
2023/01/03 02:16:02;;;;;;;139.75;38.63;;;;;;;9.27;100.00;101993.66;5010935;28;20456;-75
2023/01/03 02:18:41;;;;;;;175.65;40.75;;;;;;;9.27;100.00;101991.88;5010328;28;20373;-75
2023/01/03 02:21:28;;;;;;;116.82;35.83;;;;;;;9.28;100.00;101998.75;5010694;28;20038;-75
2023/01/03 02:24:16;;;;;;;95.53;35.30;;;;;;;9.29;100.00;101987.41;5004984;28;20057;-75
2023/01/03 02:26:56;;;;;;;85.25;34.00;;;;;;;9.34;100.00;101987.13;5008866;28;20045;-75
2023/01/03 02:30:05;;;;;;;136.30;34.47;;;;;;;9.36;100.00;101995.66;5009140;28;20030;-75
2023/01/03 02:32:47;;;;;;;217.95;38.00;;;;;;;9.37;100.00;102002.53;5008499;28;20050;-76
2023/01/03 02:35:58;;;;;;;105.60;31.33;;;;;;;9.37;100.00;101994.72;5014796;28;20025;-76
2023/01/03 02:38:36;;;;;;;211.30;38.38;;;;;;;9.39;100.00;101992.84;5001102;28;20042;-76
2023/01/03 02:41:10;;;;;;;175.10;37.78;;;;;;;9.40;100.00;101994.53;5006807;28;20084;-76
2023/01/03 02:43:52;;;;;;;203.80;39.00;;;;;;;9.40;100.00;101988.50;5008241;28;20129;-76
2023/01/03 02:46:54;;;;;;;104.85;35.42;;;;;;;9.31;100.00;101985.53;5010375;28;20363;-75
2023/01/03 02:49:30;;;;;;;107.10;34.00;;;;;;;9.25;100.00;101982.50;4983293;28;20049;-75
2023/01/03 02:52:01;;;;;;;105.05;35.67;;;;;;;9.26;100.00;101989.38;4968492;28;20675;-76
2023/01/03 02:54:37;;;;;;;98.03;33.38;;;;;;;9.25;100.00;101974.69;4982260;28;20042;-75
2023/01/03 02:57:06;;;;;;;;;;;;;;;9.20;100.00;101984.56;4986639;28;20038;-75
2023/01/03 02:59:50;;;;;;;120.68;37.08;;;;;;;9.20;100.00;101979.38;4984906;28;19922;-76
2023/01/03 03:02:18;;;;;;;123.35;37.08;;;;;;;9.21;100.00;101978.44;4972892;28;20050;-76
2023/01/03 03:04:47;;;;;;;90.93;33.97;;;;;;;9.24;100.00;101983.44;4966584;28;20046;-76
2023/01/03 03:07:22;;;;;;;88.55;31.25;;;;;;;9.21;100.00;101983.63;4988986;28;20205;-76
2023/01/03 03:15:24;;;;;;;147.55;29.67;;;;;;;9.30;100.00;101983.88;5008126;28;20100;-76
2023/01/03 03:17:56;;;;;;;122.85;26.95;;;;;;;9.32;100.00;101982.00;5006339;28;20042;-76
2023/01/03 03:26:05;;;;;;;137.05;30.38;;;;;;;9.33;100.00;101977.66;4986050;28;20049;-75
2023/01/03 03:28:35;;;;;;;102.22;28.52;;;;;;;9.32;100.00;101974.22;5014301;28;20485;-76
2023/01/03 03:31:16;;;;;;;99.25;28.90;;;;;;;9.28;100.00;101977.94;5013367;28;20030;-76
2023/01/03 03:34:13;;;;;;;63.28;25.15;;;;;;;9.20;100.00;101977.59;5005919;28;20508;-76
2023/01/03 03:36:38;;;;;;;;;;;;;;;9.13;100.00;101968.53;5012085;28;20038;-75
2023/01/03 03:44:58;;;;;;;35.27;17.57;;;;;;;9.17;100.00;101971.75;5014910;28;19929;-76
2023/01/03 03:45:01;;;;;;;38.05;18.00;;;;;;;9.20;100.00;101967.19;5012727;28;20121;-76
2023/01/03 03:47:52;;;;;;;31.42;17.63;;;;;;;9.20;100.00;101971.56;5017218;28;20119;-76
2023/01/03 03:50:30;;;;;;;44.10;17.42;;;;;;;9.22;100.00;101967.09;5011627;28;20171;-76
2023/01/03 03:53:04;;;;;;;51.30;18.23;;;;;;;9.26;100.00;101973.78;5009038;28;20038;-76
2023/01/03 03:55:40;;;;;;;44.47;19.52;;;;;;;9.28;100.00;101964.09;5013412;28;20034;-76
2023/01/03 03:58:08;;;;;;;;;;;;;;;9.25;100.00;101967.72;5017589;28;20057;-76
2023/01/03 04:00:38;;;;;;;61.25;18.90;;;;;;;9.29;100.00;101968.38;5045051;28;20400;-76
2023/01/03 04:03:06;;;;;;;48.42;18.55;;;;;;;9.32;100.00;101969.00;5016537;28;20041;-76
2023/01/03 04:05:38;;;;;;;56.75;18.85;;;;;;;9.33;100.00;101964.63;5014812;28;20041;-76
2023/01/03 04:08:05;;;;;;;44.53;18.02;;;;;;;9.33;100.00;101962.03;5016487;28;20132;-76
2023/01/03 04:10:30;;;;;;;38.97;17.05;;;;;;;9.31;100.00;101969.09;5045261;28;20393;-76
2023/01/03 04:12:56;;;;;;;34.20;17.35;;;;;;;9.27;100.00;101960.66;5013210;28;20045;-76
2023/01/03 04:15:22;;;;;;;34.75;16.63;;;;;;;9.28;100.00;101964.94;5011300;28;20042;-76
2023/01/03 04:17:47;;;;;;;67.55;17.63;;;;;;;9.27;100.00;101967.63;5017783;28;20037;-75
2023/01/03 04:20:14;;;;;;;66.03;17.85;;;;;;;9.24;100.00;101960.88;5011370;28;20062;-75
2023/01/03 04:22:39;;;;;;;53.95;17.40;;;;;;;9.27;100.00;101965.03;5012992;28;20610;-75
2023/01/03 04:25:06;;;;;;;61.92;17.75;;;;;;;9.30;100.00;101976.06;5012508;28;20136;-76
2023/01/03 04:27:32;;;;;;;45.65;17.75;;;;;;;9.29;100.00;101968.38;5011140;28;20377;-75
2023/01/03 04:29:58;;;;;;;72.60;18.08;;;;;;;9.32;100.00;101969.00;5016487;28;20029;-76
2023/01/03 04:32:23;;;;;;;90.15;21.65;;;;;;;9.35;100.00;101967.97;5016771;28;20025;-75
2023/01/03 04:34:49;;;;;;;68.78;20.13;;;;;;;9.35;100.00;101967.97;5011265;28;20030;-76
2023/01/03 04:37:15;;;;;;;102.65;23.02;;;;;;;9.37;100.00;101968.72;5009080;28;20050;-75
2023/01/03 04:39:41;;;;;;;86.15;22.55;;;;;;;9.40;100.00;101965.06;5007234;28;20034;-75
2023/01/03 04:44:51;;;;;;;79.28;22.35;;;;;;;9.35;100.00;101959.34;5015820;28;20099;-75
2023/01/03 04:47:18;;;;;;;88.15;22.60;;;;;;;9.37;100.00;101967.88;5020277;28;20029;-75
2023/01/03 04:49:45;;;;;;;56.58;21.67;;;;;;;9.39;100.00;101964.25;5008924;28;20032;-75
2023/01/03 04:52:11;;;;;;;82.28;25.33;;;;;;;9.39;100.00;101966.00;5018375;28;20026;-75
2023/01/03 04:54:38;;;;;;;81.50;26.90;;;;;;;9.38;100.00;101959.13;5008026;28;20390;-76
2023/01/03 04:57:04;;;;;;;122.00;28.30;;;;;;;9.37;100.00;101957.47;5015043;28;20500;-76
2023/01/03 04:59:29;;;;;;;48.08;23.23;;;;;;;9.37;100.00;101960.91;5017799;28;20049;-76
2023/01/03 05:01:55;;;;;;;69.55;23.10;;;;;;;9.38;100.00;101957.38;5011480;28;20557;-75
2023/01/03 05:04:21;;;;;;;43.63;23.70;;;;;;;9.38;100.00;101962.56;5008888;28;20051;-75
2023/01/03 05:06:47;;;;;;;39.47;21.90;;;;;;;9.36;100.00;101967.03;5007372;28;20386;-75
2023/01/03 05:09:12;;;;;;;68.80;24.48;;;;;;;9.38;100.00;101967.78;5007049;28;20029;-75
2023/01/03 05:11:38;;;;;;;72.07;23.63;;;;;;;9.39;100.00;101972.03;5008038;28;20100;-75
2023/01/03 05:14:04;;;;;;;66.70;24.90;;;;;;;9.42;100.00;101964.03;5008420;28;20041;-75
2023/01/03 05:16:30;;;;;;;61.72;23.77;;;;;;;9.40;100.00;101968.50;5010349;28;20624;-75
2023/01/03 05:18:56;;;;;;;43.95;22.73;;;;;;;9.37;100.00;101966.09;5019931;28;20040;-76
2023/01/03 05:27:02;;;;;;;40.97;23.10;;;;;;;9.31;100.00;101977.75;5011214;28;20045;-75
2023/01/03 05:29:29;;;;;;;37.97;20.73;;;;;;;9.29;100.00;101969.19;4992199;28;20042;-75
2023/01/03 05:31:55;;;;;;;44.63;21.65;;;;;;;9.31;100.00;101977.75;5014137;28;20029;-75
2023/01/03 05:34:21;;;;;;;44.63;22.58;;;;;;;9.34;100.00;101976.72;5015035;28;20038;-75
2023/01/03 05:36:47;;;;;;;45.05;20.92;;;;;;;9.30;100.00;101970.88;5008105;28;20044;-75
2023/01/03 05:39:13;;;;;;;36.97;19.08;;;;;;;9.31;100.00;101974.31;5008063;28;20030;-76
2023/01/03 05:44:23;;;;;;;43.88;21.20;;;;;;;9.29;100.00;101973.56;5013617;28;20068;-75
2023/01/03 05:46:49;;;;;;;45.33;20.20;;;;;;;9.29;100.00;101968.38;5013975;28;20075;-75
2023/01/03 05:49:15;;;;;;;52.03;20.52;;;;;;;9.32;100.00;101983.78;5015323;28;20034;-75
2023/01/03 05:51:41;;;;;;;34.33;19.85;;;;;;;9.34;100.00;101970.69;5008756;28;20042;-75
2023/01/03 05:54:12;;;;;;;32.65;19.08;;;;;;;9.35;100.00;101975.78;5006423;28;20034;-75
2023/01/03 05:56:38;;;;;;;55.03;18.88;;;;;;;9.41;100.00;101982.34;5013926;28;20042;-75
2023/01/03 05:59:06;;;;;;;57.53;18.98;;;;;;;9.42;100.00;101986.63;5011699;28;20049;-75
2023/01/03 06:01:32;;;;;;;48.58;17.50;;;;;;;9.41;100.00;101983.19;5011260;28;20482;-75
2023/01/03 06:04:00;;;;;;;46.30;16.70;;;;;;;9.42;100.00;101984.84;5010992;28;20030;-75
2023/01/03 06:06:26;;;;;;;53.40;17.85;;;;;;;9.42;100.00;101984.84;5022805;28;20033;-75
2023/01/03 06:08:53;;;;;;;39.33;16.83;;;;;;;9.42;100.00;101979.66;5009389;28;20040;-75
2023/01/03 06:11:20;;;;;;;47.30;18.13;;;;;;;9.43;100.00;101985.69;5010504;28;20026;-76
2023/01/03 06:13:45;;;;;;;49.47;15.77;;;;;;;9.42;100.00;101984.84;5010003;28;20492;-75
2023/01/03 06:19:01;;;;;;;45.33;16.80;;;;;;;9.43;100.00;101986.53;5014920;28;20045;-75
2023/01/03 06:21:27;;;;;;;41.80;17.33;;;;;;;9.42;100.00;101984.84;5016578;28;20052;-76
2023/01/03 06:23:53;;;;;;;81.93;19.92;;;;;;;9.44;100.00;101982.16;5018578;28;20104;-75
2023/01/03 06:26:21;;;;;;;50.97;16.77;;;;;;;9.46;100.00;101986.28;5018429;28;20037;-75
2023/01/03 06:28:48;;;;;;;85.20;19.33;;;;;;;9.45;100.00;101989.81;5017306;28;20034;-76
2023/01/03 06:31:13;;;;;;;60.72;18.88;;;;;;;9.44;100.00;101988.19;5010011;28;20041;-76
2023/01/03 06:33:39;;;;;;;69.45;20.27;;;;;;;9.45;100.00;101992.44;5020673;28;20131;-75
2023/01/03 06:36:22;;;;;;;66.65;20.80;;;;;;;9.46;100.00;102001.91;5013535;28;20040;-75
2023/01/03 06:38:48;;;;;;;50.38;18.48;;;;;;;9.47;100.00;101992.31;5015598;28;20030;-75
2023/01/03 06:41:16;;;;;;;51.88;19.55;;;;;;;9.47;100.00;101993.16;5012990;28;20029;-75
2023/01/03 06:43:43;;;;;;;51.58;20.60;;;;;;;9.45;100.00;102000.22;5010173;28;20088;-76
2023/01/03 06:54:32;;;;;;;37.08;19.23;;;;;;;9.42;100.00;102010.88;5012489;28;20083;-76
2023/01/03 06:56:58;;;;;;;35.47;20.27;;;;;;;9.42;100.00;102008.28;5016548;28;20435;-75
2023/01/03 06:59:24;;;;;;;37.13;20.00;;;;;;;9.41;100.00;102008.38;5015032;28;20056;-75
2023/01/03 07:01:51;;;;;;;41.70;19.98;;;;;;;9.38;100.00;102005.97;5036346;28;21401;-75
2023/01/03 07:04:18;;;;;;;43.83;18.60;;;;;;;9.39;100.00;102005.03;5011450;28;20049;-75
2023/01/03 07:06:43;;;;;;;40.67;20.35;;;;;;;9.43;100.00;102002.13;5019297;28;20377;-75
2023/01/03 07:09:10;;;;;;;43.08;19.42;;;;;;;9.44;100.00;102006.41;5013983;28;20091;-75
2023/01/03 07:11:36;;;;;;;49.85;23.15;;;;;;;9.47;100.00;102011.38;5014112;28;20500;-75
2023/01/03 07:14:04;;;;;;;39.00;19.55;;;;;;;9.50;100.00;102010.34;5011504;28;20041;-75
2023/01/03 07:16:35;;;;;;;58.05;23.30;;;;;;;9.51;100.00;102007.66;5010880;28;20033;-75
2023/01/03 07:19:02;;;;;;;76.13;24.15;;;;;;;9.54;100.00;102010.03;5004817;28;20033;-75
2023/01/03 07:21:30;;;;;;;48.47;22.38;;;;;;;9.55;100.00;102010.88;5032199;28;20128;-76
2023/01/03 07:23:57;;;;;;;60.35;23.45;;;;;;;9.56;100.00;102012.53;5007546;28;20038;-76
2023/01/03 07:26:24;;;;;;;48.05;21.85;;;;;;;9.56;100.00;102010.78;5009664;28;20034;-75
2023/01/03 07:28:52;;;;;;;41.92;20.98;;;;;;;9.56;100.00;102010.78;5005913;28;20453;-76
2023/01/03 07:31:17;;;;;;;62.30;21.33;;;;;;;9.57;100.00;102017.66;5005327;28;20513;-76
2023/01/03 07:33:44;;;;;;;64.85;25.30;;;;;;;9.59;100.00;102015.78;5005941;28;20105;-75
2023/01/03 07:36:11;;;;;;;47.38;23.98;;;;;;;9.58;100.00;102021.94;5006043;28;20046;-75
2023/01/03 07:38:38;;;;;;;46.42;24.77;;;;;;;9.57;100.00;102025.47;5005748;28;20031;-76
2023/01/03 07:41:04;;;;;;;48.78;23.17;;;;;;;9.57;100.00;102025.47;5005930;28;21510;-76
2023/01/03 07:43:35;;;;;;;88.18;46.38;;;;;;;9.57;100.00;102022.84;5005069;28;20045;-76
2023/01/03 07:46:21;;;;;;;50.67;22.83;;;;;;;9.59;100.00;102022.75;5006321;28;20079;-75
2023/01/03 07:48:48;;;;;;;37.58;18.35;;;;;;;9.58;100.00;102018.50;5005525;28;20171;-76
2023/01/03 07:51:16;;;;;;;32.15;16.73;;;;;;;9.56;100.00;102018.59;5015677;28;20477;-76
2023/01/03 07:53:43;;;;;;;33.63;15.43;;;;;;;9.56;100.00;102020.34;5019998;28;20366;-76
2023/01/03 07:56:13;;;;;;;30.33;15.80;;;;;;;9.56;100.00;102013.38;5019055;28;20462;-76
2023/01/03 07:58:40;;;;;;;27.48;15.63;;;;;;;9.59;100.00;102022.75;5011094;28;20413;-76
2023/01/03 08:01:12;;;;;;;24.48;14.32;;;;;;;9.62;100.00;102028.59;5012372;28;20065;-76
2023/01/03 08:03:38;;;;;;;29.05;15.20;;;;;;;9.63;100.00;102027.66;5015797;28;20053;-76
2023/01/03 08:06:06;;;;;;;32.20;14.63;;;;;;;9.65;100.00;102032.78;5009544;28;20048;-76
2023/01/03 08:08:32;;;;;;;35.28;16.17;;;;;;;9.68;100.00;102036.94;5007907;28;20021;-76
2023/01/03 08:13:44;;;;;;;32.50;13.73;;;;;;;9.65;100.00;102041.41;5006307;28;20079;-76
2023/01/03 08:16:11;;;;;;;32.42;14.68;;;;;;;9.68;100.00;102045.59;5009588;28;20060;-76
2023/01/03 08:18:38;;;;;;;30.75;14.27;;;;;;;9.68;100.00;102047.34;5016760;28;20034;-77
2023/01/03 08:21:04;;;;;;;26.85;11.90;;;;;;;9.68;100.00;102047.34;5016333;28;20034;-77
2023/01/03 08:23:30;;;;;;;26.55;13.43;;;;;;;9.69;100.00;102044.66;5012923;28;20050;-76
2023/01/03 08:26:10;;;;;;;22.95;12.40;;;;;;;9.67;100.00;102046.50;5012251;28;20064;-76
2023/01/03 08:28:36;;;;;;;23.17;12.27;;;;;;;9.68;100.00;102049.94;5007700;28;20034;-76
2023/01/03 08:31:07;;;;;;;20.02;11.50;;;;;;;9.65;100.00;102049.22;5010440;28;20068;-76
2023/01/03 08:33:38;;;;;;;32.60;12.75;;;;;;;9.62;100.00;102053.78;5009382;28;20048;-76
2023/01/03 08:36:06;;;;;;;21.58;11.82;;;;;;;9.60;100.00;102046.09;5008233;28;20037;-76
2023/01/03 08:38:47;;;;;;;19.13;11.20;;;;;;;9.58;100.00;102050.53;5009863;28;20167;-76
2023/01/03 08:41:16;;;;;;;19.33;11.38;;;;;;;9.55;100.00;102053.34;5009162;28;20038;-76
2023/01/03 08:43:45;;;;;;;21.27;12.00;;;;;;;9.55;100.00;102053.34;5016343;28;20057;-76
2023/01/03 08:46:12;;;;;;;23.48;11.48;;;;;;;9.52;100.00;102053.53;5008528;28;20044;-65
2023/01/03 08:48:38;;;;;;;20.15;10.65;;;;;;;9.52;100.00;102063.94;5006803;28;20042;-66
2023/01/03 08:51:04;;;;;;;18.95;11.38;;;;;;;9.51;100.00;102075.28;5015260;28;20374;-67
2023/01/03 08:53:30;;;;;;;21.80;11.55;;;;;;;9.49;100.00;102069.34;5012073;28;20029;-65
2023/01/03 08:55:55;;;;;;;19.55;10.65;;;;;;;9.51;100.00;102071.84;5036292;28;20052;-65
2023/01/03 08:58:21;;;;;;;23.63;12.00;;;;;;;9.53;100.00;102076.03;5008279;28;20198;-65
2023/01/03 09:00:46;;;;;;;23.35;11.30;;;;;;;9.51;100.00;102075.28;5008744;28;20172;-65
2023/01/03 09:03:12;;;;;;;25.83;11.05;;;;;;;9.54;100.00;102077.69;5009529;28;20041;-65
2023/01/03 09:05:46;;;;;;;17.15;11.05;;;;;;;9.54;100.00;102075.09;5011732;28;20381;-66
2023/01/03 09:08:12;;;;;;;22.98;12.05;;;;;;;9.55;100.00;102074.16;5010679;28;20067;-65
2023/01/03 09:10:39;;;;;;;20.98;12.90;;;;;;;9.54;100.00;102079.47;5009965;28;20469;-65
2023/01/03 09:13:04;;;;;;;29.77;13.85;;;;;;;9.55;100.00;102076.75;5007540;28;21640;-65
2023/01/03 09:15:30;;;;;;;21.65;12.18;;;;;;;9.57;100.00;102080.09;5010198;28;20536;-65
2023/01/03 09:17:56;;;;;;;23.65;13.80;;;;;;;9.63;100.00;102076.28;5013825;28;20109;-65
2023/01/03 09:20:22;;;;;;;27.42;15.00;;;;;;;9.64;100.00;102080.53;5013624;28;20042;-66
2023/01/03 09:22:48;;;;;;;25.42;13.43;;;;;;;9.71;100.00;102087.03;5009038;28;20366;-75
2023/01/03 09:25:14;;;;;;;27.58;12.65;;;;;;;9.73;100.00;102082.56;5013822;28;20044;-75
2023/01/03 09:27:47;;;;;;;30.00;13.68;;;;;;;9.75;100.00;102085.06;5012984;28;20029;-74
2023/01/03 09:30:15;;;;;;;21.90;12.95;;;;;;;9.73;100.00;102079.97;5012642;28;20114;-75
2023/01/03 09:32:41;;;;;;;26.77;12.15;;;;;;;9.75;100.00;102078.09;5013965;28;20021;-76
2023/01/03 09:35:10;;;;;;;17.35;10.70;;;;;;;9.77;100.00;102084.03;5015233;28;20457;-76
2023/01/03 09:37:36;;;;;;;26.67;12.05;;;;;;;9.77;100.00;102083.19;5008664;28;20148;-76
2023/01/03 09:40:02;;;;;;;19.10;10.77;;;;;;;9.76;100.00;102076.31;5008647;28;20501;-76
2023/01/03 09:45:27;;;;;;;21.02;10.65;;;;;;;9.72;100.00;102082.66;5010735;28;20056;-77
2023/01/03 09:47:53;;;;;;;23.63;11.40;;;;;;;9.72;100.00;102082.66;5010583;28;20025;-76
2023/01/03 09:50:22;;;;;;;26.60;11.63;;;;;;;9.63;100.00;102081.47;5012849;28;20159;-76
2023/01/03 10:04:42;;;;;;;19.00;10.70;;;;;;;9.61;100.00;102073.78;5013609;28;20056;-76
2023/01/03 10:07:39;;;;;;;25.10;13.02;;;;;;;9.64;100.00;102068.38;5024706;28;20167;-77
2023/01/03 10:10:46;;;;;;;22.35;10.63;;;;;;;9.70;100.00;102061.94;5025717;28;20045;-76
2023/01/03 10:13:18;;;;;;;;;;;;;;;9.67;100.00;102061.28;5017952;28;20037;-76
2023/01/03 10:16:06;;;;;;;23.35;13.40;;;;;;;9.67;100.00;102058.69;5048020;28;19921;-77
2023/01/03 10:18:54;;;;;;;19.75;14.18;;;;;;;9.69;100.00;102060.25;5011123;28;20394;-77
2023/01/03 10:21:30;;;;;;;20.65;10.82;;;;;;;9.70;100.00;102058.50;5009828;28;20121;-75
2023/01/03 10:23:57;;;;;;;19.73;9.13;;;;;;;9.61;100.00;102045.16;5015789;28;20049;-76
2023/01/03 10:26:26;;;;;;;20.50;10.10;;;;;;;9.63;100.00;102040.69;5025965;28;20037;-77
2023/01/03 10:28:52;;;;;;;21.13;10.48;;;;;;;9.66;100.00;102044.84;5026196;28;20401;-76
2023/01/03 10:31:35;;;;;;;23.35;10.75;;;;;;;9.64;100.00;102049.31;5029335;28;20026;-76
2023/01/03 10:34:05;;;;;;;25.67;10.70;;;;;;;9.69;100.00;102042.03;5026721;28;20025;-77
2023/01/03 10:36:30;;;;;;;31.50;13.02;;;;;;;9.73;100.00;102034.88;5016852;28;20633;-72
2023/01/03 10:39:04;;;;;;;27.13;14.00;;;;;;;9.73;100.00;102034.88;5023061;28;20022;-76
2023/01/03 10:41:35;;;;;;;36.67;14.57;;;;;;;9.75;100.00;102033.84;5025664;28;20048;-76
2023/01/03 10:44:02;;;;;;;33.13;14.25;;;;;;;9.77;100.00;102025.94;5022252;28;20037;-75
2023/01/03 10:46:29;;;;;;;31.90;14.60;;;;;;;9.78;100.00;102032.81;5029659;28;20099;-76
2023/01/03 10:49:10;;;;;;;34.65;17.08;;;;;;;9.77;100.00;102029.38;5021013;28;20022;-76
2023/01/03 10:51:48;;;;;;;36.75;13.95;;;;;;;9.78;100.00;102019.78;5019649;28;20033;-76
2023/01/03 10:54:17;;;;;;;28.95;13.68;;;;;;;9.81;100.00;102022.19;5016852;28;20445;-76
2023/01/03 10:56:43;;;;;;;33.35;14.05;;;;;;;9.83;100.00;102023.75;5019567;28;20524;-77
2023/01/03 10:59:30;;;;;;;29.08;14.13;;;;;;;9.82;100.00;102016.88;5021177;28;20072;-77
2023/01/03 11:02:07;;;;;;;34.30;13.63;;;;;;;9.83;100.00;102013.34;5011180;28;20030;-76
2023/01/03 11:04:34;;;;;;;23.58;12.00;;;;;;;9.85;100.00;102010.63;5012300;28;20095;-75
2023/01/03 11:07:12;;;;;;;26.50;12.68;;;;;;;9.86;100.00;102009.72;5017986;28;20040;-75
2023/01/03 11:09:50;;;;;;;46.40;18.33;;;;;;;9.85;100.00;102002.84;5010654;28;20584;-75
2023/01/03 11:12:35;;;;;;;47.55;21.10;;;;;;;9.86;100.00;102005.34;5015689;28;20036;-74
2023/01/03 11:15:13;;;;;;;39.33;16.02;;;;;;;9.91;100.00;102002.44;5015963;28;20037;-75
2023/01/03 11:17:52;;;;;;;36.70;18.00;;;;;;;9.91;100.00;101997.22;5016203;28;20037;-74
2023/01/03 11:20:18;;;;;;;41.08;20.17;;;;;;;9.95;100.00;102002.09;5016410;28;20033;-76
2023/01/03 11:22:53;;;;;;;37.72;18.15;;;;;;;10.01;100.00;102000.00;5012973;28;20108;-75
2023/01/03 11:25:52;;;;;;;40.58;20.63;;;;;;;9.99;100.00;101995.75;5009549;28;20454;-75
2023/01/03 11:28:39;;;;;;;35.60;20.17;;;;;;;9.94;100.00;102004.78;5020040;28;20042;-75
2023/01/03 11:31:05;;;;;;;28.42;13.57;;;;;;;9.94;100.00;101999.59;5008693;28;20132;-75
2023/01/03 11:33:52;;;;;;;32.20;14.35;;;;;;;9.92;100.00;101993.69;5013416;28;20121;-74
2023/01/03 11:36:59;;;;;;;30.58;15.30;;;;;;;9.99;100.00;101994.91;5009997;28;20042;-75
2023/01/03 11:39:42;;;;;;;26.75;13.60;;;;;;;10.03;100.00;101993.75;5008178;28;20036;-75
2023/01/03 11:42:11;;;;;;;34.25;13.23;;;;;;;10.05;100.00;101988.44;5008509;28;20028;-76
2023/01/03 11:44:54;;;;;;;31.05;12.52;;;;;;;9.96;100.00;101987.28;5018138;28;20452;-76
2023/01/03 11:47:40;;;;;;;35.25;12.43;;;;;;;9.90;100.00;101990.34;5007609;28;20041;-77
2023/01/03 11:50:25;;;;;;;28.70;11.68;;;;;;;9.92;100.00;101978.06;5014308;28;20038;-76
2023/01/03 11:53:23;;;;;;;35.15;13.20;;;;;;;9.87;100.00;101982.75;5012429;28;20034;-77
2023/01/03 11:56:26;;;;;;;38.25;13.35;;;;;;;9.87;100.00;101985.34;5010138;28;20042;-76
2023/01/03 11:59:09;;;;;;;49.17;13.68;;;;;;;9.85;100.00;101980.25;5008561;28;20046;-76
2023/01/03 12:01:47;;;;;;;40.53;15.88;;;;;;;9.89;100.00;101986.06;5010071;28;20056;-76
2023/01/03 12:04:24;;;;;;;41.63;19.25;;;;;;;9.88;100.00;101980.03;5011454;28;20112;-76
2023/01/03 12:07:36;;;;;;;34.28;15.77;;;;;;;9.89;100.00;101973.88;5006408;28;20034;-76
2023/01/03 12:10:36;;;;;;;36.65;16.92;;;;;;;9.90;100.00;101969.50;4947187;28;20198;-76
2023/01/03 12:13:33;;;;;;;36.13;15.95;;;;;;;9.93;100.00;101974.47;4947772;28;20387;-76
2023/01/03 12:16:14;;;;;;;38.42;17.23;;;;;;;9.93;100.00;101959.69;4908401;29;20048;-76
2023/01/03 12:19:06;;;;;;;37.20;16.95;;;;;;;9.99;100.00;101963.66;4909755;29;20043;-76
2023/01/03 12:21:41;;;;;;;38.35;15.23;;;;;;;10.02;100.00;101960.00;4892900;29;20176;-76
2023/01/03 12:24:16;;;;;;;31.67;13.32;;;;;;;10.01;100.00;101955.75;4923195;29;20044;-76
2023/01/03 12:26:49;;;;;;;33.47;13.23;;;;;;;10.06;100.00;101966.69;4919279;29;20056;-76